SBI1138 UHSS-UHPP
Flight info
| Callsign | SBI1138 |
|---|---|
| Flight time | 1h 50m |
| Altitude | 35000 |
| Route | ODEKO G103 PAKLI T564 NAMUL P176 UB T577 SAMIK |
| Aircraft | A320/M-SDE3FGHIRWY/LB1 |
Departure
| Time | 2026-04-29 18:19 |
|---|---|
| Airport | Yuzhno-Sakhalinsk International Airport (UHSS) |
Arrival
| Time | 2026-04-29 20:09 |
|---|---|
| Airport | Yelizovo Airport (UHPP) |
| Time | Latitude | Longitude | Altitude | Speed | Heading |
|---|---|---|---|---|---|
| 2026-04-29 17:41 | 46.88729 | 142.72239 | 56 ft | 0 kts | 90° |
| 2026-04-29 18:07 | 46.88729 | 142.72219 | 57 ft | 4 kts | 90° |
| 2026-04-29 18:08 | 46.88729 | 142.72180 | 60 ft | 4 kts | 91° |
| 2026-04-29 18:08 | 46.88730 | 142.72142 | 60 ft | 3 kts | 76° |
| 2026-04-29 18:08 | 46.88724 | 142.72113 | 62 ft | 4 kts | 60° |
| 2026-04-29 18:08 | 46.88707 | 142.72086 | 56 ft | 4 kts | 9° |
| 2026-04-29 18:09 | 46.88689 | 142.72094 | 63 ft | 2 kts | 283° |
| 2026-04-29 18:09 | 46.88688 | 142.72103 | 60 ft | 0 kts | 281° |
| 2026-04-29 18:12 | 46.88702 | 142.72078 | 62 ft | 7 kts | 329° |
| 2026-04-29 18:12 | 46.88768 | 142.72095 | 59 ft | 12 kts | 14° |
| 2026-04-29 18:13 | 46.88849 | 142.72104 | 63 ft | 12 kts | 1° |
| 2026-04-29 18:13 | 46.88931 | 142.72101 | 60 ft | 12 kts | 347° |
| 2026-04-29 18:13 | 46.89011 | 142.72050 | 60 ft | 14 kts | 332° |
| 2026-04-29 18:13 | 46.89075 | 142.71953 | 65 ft | 8 kts | 297° |
| 2026-04-29 18:14 | 46.89076 | 142.71949 | 64 ft | 0 kts | 296° |
| 2026-04-29 18:17 | 46.89078 | 142.71942 | 61 ft | 4 kts | 295° |
| 2026-04-29 18:17 | 46.89085 | 142.71871 | 69 ft | 8 kts | 270° |
| 2026-04-29 18:17 | 46.89085 | 142.71812 | 73 ft | 5 kts | 270° |
| 2026-04-29 18:17 | 46.89062 | 142.71755 | 71 ft | 10 kts | 189° |
| 2026-04-29 18:18 | 46.89038 | 142.71754 | 70 ft | 0 kts | 180° |
| 2026-04-29 18:18 | 46.88789 | 142.71749 | 66 ft | 79 kts | 181° |
| 2026-04-29 18:19 | 46.87969 | 142.71729 | 67 ft | 153 kts | 181° |
| 2026-04-29 18:19 | 46.86758 | 142.71703 | 463 ft | 178 kts | 181° |
| 2026-04-29 18:19 | 46.85536 | 142.71643 | 1533 ft | 174 kts | 178° |
| 2026-04-29 18:19 | 46.84438 | 142.72197 | 2308 ft | 171 kts | 145° |
| 2026-04-29 18:20 | 46.83607 | 142.73415 | 2895 ft | 172 kts | 133° |
| 2026-04-29 18:20 | 46.82905 | 142.74839 | 3456 ft | 178 kts | 124° |
| 2026-04-29 18:20 | 46.82340 | 142.76555 | 3772 ft | 197 kts | 115° |
| 2026-04-29 18:20 | 46.81755 | 142.78463 | 4080 ft | 216 kts | 117° |
| 2026-04-29 18:21 | 46.81086 | 142.80563 | 4405 ft | 240 kts | 117° |
| 2026-04-29 18:21 | 46.80337 | 142.82881 | 4781 ft | 264 kts | 117° |
| 2026-04-29 18:21 | 46.79533 | 142.85351 | 5436 ft | 274 kts | 117° |
| 2026-04-29 18:21 | 46.78702 | 142.87893 | 6210 ft | 281 kts | 117° |
| 2026-04-29 18:22 | 46.77851 | 142.90487 | 6960 ft | 287 kts | 117° |
| 2026-04-29 18:22 | 46.76981 | 142.93130 | 7742 ft | 291 kts | 117° |
| 2026-04-29 18:22 | 46.76146 | 142.95839 | 8542 ft | 295 kts | 108° |
| 2026-04-29 18:22 | 46.75891 | 142.98776 | 9312 ft | 299 kts | 84° |
| 2026-04-29 18:23 | 46.76455 | 143.01667 | 10072 ft | 299 kts | 59° |
| 2026-04-29 18:23 | 46.77570 | 143.04313 | 10442 ft | 317 kts | 54° |
| 2026-04-29 18:23 | 46.78812 | 143.07115 | 10632 ft | 340 kts | 54° |
| 2026-04-29 18:23 | 46.80145 | 143.10099 | 10775 ft | 363 kts | 54° |
| 2026-04-29 18:24 | 46.81564 | 143.13281 | 10908 ft | 384 kts | 55° |
| 2026-04-29 18:24 | 46.83044 | 143.16622 | 11159 ft | 398 kts | 55° |
| 2026-04-29 18:24 | 46.84543 | 143.20045 | 11703 ft | 403 kts | 55° |
| 2026-04-29 18:24 | 46.86051 | 143.23516 | 12304 ft | 406 kts | 56° |
| 2026-04-29 18:25 | 46.87567 | 143.27016 | 12895 ft | 409 kts | 55° |
| 2026-04-29 18:25 | 46.89093 | 143.30533 | 13485 ft | 412 kts | 55° |
| 2026-04-29 18:25 | 46.90637 | 143.34076 | 14045 ft | 414 kts | 55° |
| 2026-04-29 18:25 | 46.92172 | 143.37592 | 14546 ft | 417 kts | 55° |
| 2026-04-29 18:26 | 46.93735 | 143.41179 | 15042 ft | 420 kts | 55° |
| 2026-04-29 18:26 | 46.95306 | 143.44792 | 15540 ft | 422 kts | 55° |
| 2026-04-29 18:26 | 46.96886 | 143.48431 | 16023 ft | 425 kts | 54° |
| 2026-04-29 18:26 | 46.98472 | 143.52095 | 16503 ft | 427 kts | 55° |
| 2026-04-29 18:27 | 47.00064 | 143.55783 | 16976 ft | 430 kts | 54° |
| 2026-04-29 18:27 | 47.01666 | 143.59503 | 17445 ft | 433 kts | 54° |
| 2026-04-29 18:27 | 47.03277 | 143.63246 | 17908 ft | 435 kts | 54° |
| 2026-04-29 18:27 | 47.04897 | 143.67012 | 18354 ft | 438 kts | 54° |
| 2026-04-29 18:28 | 47.06525 | 143.70799 | 18744 ft | 440 kts | 54° |
| 2026-04-29 18:28 | 47.08160 | 143.74608 | 19116 ft | 443 kts | 54° |
| 2026-04-29 18:28 | 47.09806 | 143.78447 | 19490 ft | 445 kts | 54° |
| 2026-04-29 18:28 | 47.11457 | 143.82303 | 19856 ft | 447 kts | 54° |
| 2026-04-29 18:29 | 47.13113 | 143.86180 | 20220 ft | 450 kts | 54° |
| 2026-04-29 18:29 | 47.14216 | 143.88762 | 20451 ft | 451 kts | 54° |
| 2026-04-29 18:29 | 47.16431 | 143.93950 | 20908 ft | 454 kts | 54° |
| 2026-04-29 18:29 | 47.18109 | 143.97890 | 21244 ft | 456 kts | 54° |
| 2026-04-29 18:30 | 47.19794 | 144.01855 | 21576 ft | 458 kts | 54° |
| 2026-04-29 18:30 | 47.21486 | 144.05841 | 21897 ft | 461 kts | 54° |
| 2026-04-29 18:30 | 47.23186 | 144.09846 | 22206 ft | 463 kts | 54° |
| 2026-04-29 18:30 | 47.24893 | 144.13871 | 22514 ft | 465 kts | 54° |
| 2026-04-29 18:31 | 47.26606 | 144.17920 | 22806 ft | 467 kts | 55° |
| 2026-04-29 18:31 | 47.28321 | 144.21989 | 23103 ft | 469 kts | 55° |
| 2026-04-29 18:31 | 47.30043 | 144.26085 | 23397 ft | 471 kts | 55° |
| 2026-04-29 18:31 | 47.31773 | 144.30196 | 23672 ft | 473 kts | 55° |
| 2026-04-29 18:32 | 47.33509 | 144.34329 | 23961 ft | 474 kts | 55° |
| 2026-04-29 18:32 | 47.36962 | 144.42569 | 24686 ft | 471 kts | 55° |
| 2026-04-29 18:32 | 47.38654 | 144.46629 | 25061 ft | 470 kts | 55° |
| 2026-04-29 18:33 | 47.40365 | 144.50734 | 25434 ft | 469 kts | 54° |
| 2026-04-29 18:33 | 47.42075 | 144.54835 | 25798 ft | 468 kts | 54° |
| 2026-04-29 18:33 | 47.43777 | 144.58928 | 26171 ft | 467 kts | 54° |
| 2026-04-29 18:33 | 47.45474 | 144.63012 | 26551 ft | 466 kts | 54° |
| 2026-04-29 18:34 | 47.47172 | 144.67091 | 26933 ft | 465 kts | 54° |
| 2026-04-29 18:34 | 47.48295 | 144.69786 | 27186 ft | 465 kts | 54° |
| 2026-04-29 18:34 | 47.50554 | 144.75229 | 27708 ft | 464 kts | 54° |
| 2026-04-29 18:34 | 47.52233 | 144.79299 | 28093 ft | 463 kts | 54° |
| 2026-04-29 18:35 | 47.53904 | 144.83363 | 28485 ft | 462 kts | 54° |
| 2026-04-29 18:35 | 47.55574 | 144.87425 | 28882 ft | 461 kts | 54° |
| 2026-04-29 18:35 | 47.57219 | 144.91423 | 29266 ft | 460 kts | 54° |
| 2026-04-29 18:35 | 47.58881 | 144.95468 | 29658 ft | 460 kts | 54° |
| 2026-04-29 18:36 | 47.60540 | 144.99514 | 30057 ft | 459 kts | 54° |
| 2026-04-29 18:36 | 47.62195 | 145.03553 | 30387 ft | 458 kts | 54° |
| 2026-04-29 18:36 | 47.63850 | 145.07595 | 30664 ft | 458 kts | 54° |
| 2026-04-29 18:36 | 47.65502 | 145.11639 | 30940 ft | 459 kts | 54° |
| 2026-04-29 18:37 | 47.67153 | 145.15693 | 31204 ft | 460 kts | 54° |
| 2026-04-29 18:37 | 47.68806 | 145.19757 | 31469 ft | 460 kts | 54° |
| 2026-04-29 18:37 | 47.70459 | 145.23822 | 31739 ft | 461 kts | 54° |
| 2026-04-29 18:37 | 47.72116 | 145.27901 | 32001 ft | 461 kts | 54° |
| 2026-04-29 18:38 | 47.73770 | 145.31982 | 32278 ft | 462 kts | 54° |
| 2026-04-29 18:38 | 47.75426 | 145.36069 | 32543 ft | 462 kts | 54° |
| 2026-04-29 18:38 | 47.77063 | 145.40110 | 32801 ft | 463 kts | 54° |
| 2026-04-29 18:38 | 47.78720 | 145.44217 | 33078 ft | 463 kts | 54° |
| 2026-04-29 18:39 | 47.80374 | 145.48332 | 33341 ft | 464 kts | 55° |
| 2026-04-29 18:39 | 47.82028 | 145.52450 | 33609 ft | 464 kts | 55° |
| 2026-04-29 18:39 | 47.83681 | 145.56573 | 33883 ft | 464 kts | 55° |
| 2026-04-29 18:39 | 47.85339 | 145.60706 | 34147 ft | 465 kts | 55° |
| 2026-04-29 18:40 | 47.86993 | 145.64841 | 34366 ft | 465 kts | 55° |
| 2026-04-29 18:40 | 47.88646 | 145.68986 | 34591 ft | 466 kts | 55° |
| 2026-04-29 18:40 | 47.90300 | 145.73139 | 34795 ft | 466 kts | 55° |
| 2026-04-29 18:40 | 47.91958 | 145.77298 | 34987 ft | 467 kts | 55° |
| 2026-04-29 18:41 | 47.98646 | 145.94133 | 35081 ft | 477 kts | 55° |
| 2026-04-29 18:42 | 48.02019 | 146.02673 | 35086 ft | 478 kts | 56° |
| 2026-04-29 18:42 | 48.05391 | 146.11226 | 35086 ft | 478 kts | 56° |
| 2026-04-29 18:43 | 48.08758 | 146.19792 | 35084 ft | 478 kts | 56° |
| 2026-04-29 18:43 | 48.12106 | 146.28383 | 35088 ft | 478 kts | 56° |
| 2026-04-29 18:44 | 48.15457 | 146.36987 | 35086 ft | 478 kts | 56° |
| 2026-04-29 18:44 | 48.18782 | 146.45538 | 35088 ft | 478 kts | 56° |
| 2026-04-29 18:45 | 48.22131 | 146.54155 | 35087 ft | 478 kts | 56° |
| 2026-04-29 18:45 | 48.25466 | 146.62790 | 35088 ft | 479 kts | 56° |
| 2026-04-29 18:46 | 48.28795 | 146.71445 | 35089 ft | 479 kts | 56° |
| 2026-04-29 18:46 | 48.32121 | 146.80112 | 35089 ft | 479 kts | 56° |
| 2026-04-29 18:47 | 48.35441 | 146.88786 | 35092 ft | 479 kts | 56° |
| 2026-04-29 18:47 | 48.38757 | 146.97479 | 35089 ft | 479 kts | 57° |
| 2026-04-29 18:48 | 48.42066 | 147.06190 | 35087 ft | 479 kts | 57° |
| 2026-04-29 18:48 | 48.45345 | 147.14847 | 35089 ft | 479 kts | 57° |
| 2026-04-29 18:49 | 48.48639 | 147.23588 | 35083 ft | 480 kts | 57° |
| 2026-04-29 18:49 | 48.51935 | 147.32332 | 35083 ft | 480 kts | 57° |
| 2026-04-29 18:50 | 48.55225 | 147.41088 | 35083 ft | 480 kts | 57° |
| 2026-04-29 18:50 | 48.58501 | 147.49865 | 35083 ft | 480 kts | 57° |
| 2026-04-29 18:51 | 48.61772 | 147.58658 | 35078 ft | 480 kts | 57° |
| 2026-04-29 18:51 | 48.65017 | 147.67399 | 35076 ft | 480 kts | 57° |
| 2026-04-29 18:52 | 48.68280 | 147.76218 | 35076 ft | 480 kts | 57° |
| 2026-04-29 18:52 | 48.71537 | 147.85044 | 35076 ft | 480 kts | 58° |
| 2026-04-29 18:53 | 48.75327 | 147.93265 | 35072 ft | 473 kts | 43° |
| 2026-04-29 18:53 | 48.79993 | 148.00270 | 35065 ft | 472 kts | 41° |
| 2026-04-29 18:54 | 48.84667 | 148.07268 | 35063 ft | 472 kts | 41° |
| 2026-04-29 18:54 | 48.89308 | 148.14246 | 35060 ft | 473 kts | 41° |
| 2026-04-29 18:55 | 48.93975 | 148.21294 | 35063 ft | 473 kts | 41° |
| 2026-04-29 18:55 | 48.98644 | 148.28344 | 35059 ft | 473 kts | 41° |
| 2026-04-29 18:56 | 49.03316 | 148.35411 | 35053 ft | 473 kts | 41° |
| 2026-04-29 18:56 | 49.07946 | 148.42448 | 35058 ft | 473 kts | 41° |
| 2026-04-29 18:57 | 49.12597 | 148.49559 | 35054 ft | 473 kts | 41° |
| 2026-04-29 18:57 | 49.17249 | 148.56682 | 35054 ft | 474 kts | 42° |
| 2026-04-29 18:58 | 49.21900 | 148.63817 | 35051 ft | 474 kts | 42° |
| 2026-04-29 18:58 | 49.26548 | 148.70960 | 35053 ft | 474 kts | 42° |
| 2026-04-29 18:59 | 49.31195 | 148.78118 | 35048 ft | 474 kts | 42° |
| 2026-04-29 18:59 | 49.35806 | 148.85242 | 35050 ft | 474 kts | 42° |
| 2026-04-29 19:00 | 49.40444 | 148.92427 | 35047 ft | 474 kts | 42° |
| 2026-04-29 19:00 | 49.45073 | 148.99637 | 35038 ft | 474 kts | 42° |
| 2026-04-29 19:01 | 49.49701 | 149.06865 | 35035 ft | 474 kts | 42° |
| 2026-04-29 19:01 | 49.54325 | 149.14093 | 35034 ft | 474 kts | 42° |
| 2026-04-29 19:02 | 49.58162 | 149.20125 | 35029 ft | 474 kts | 43° |
| 2026-04-29 19:02 | 49.63528 | 149.28568 | 35025 ft | 474 kts | 43° |
| 2026-04-29 19:03 | 49.68143 | 149.35840 | 35027 ft | 474 kts | 43° |
| 2026-04-29 19:03 | 49.72755 | 149.43132 | 35024 ft | 474 kts | 43° |
| 2026-04-29 19:04 | 49.77363 | 149.50434 | 35019 ft | 474 kts | 43° |
| 2026-04-29 19:04 | 49.81966 | 149.57765 | 35027 ft | 475 kts | 43° |
| 2026-04-29 19:05 | 49.86528 | 149.65067 | 35025 ft | 475 kts | 43° |
| 2026-04-29 19:05 | 49.91118 | 149.72424 | 35021 ft | 475 kts | 43° |
| 2026-04-29 19:06 | 49.95711 | 149.79794 | 35018 ft | 475 kts | 43° |
| 2026-04-29 19:07 | 50.02593 | 149.90865 | 35009 ft | 475 kts | 43° |
| 2026-04-29 19:07 | 50.07174 | 149.98276 | 35013 ft | 475 kts | 43° |
| 2026-04-29 19:08 | 50.11719 | 150.05647 | 35007 ft | 475 kts | 43° |
| 2026-04-29 19:08 | 50.16288 | 150.13087 | 35003 ft | 475 kts | 44° |
| 2026-04-29 19:09 | 50.20851 | 150.20543 | 35001 ft | 475 kts | 44° |
| 2026-04-29 19:09 | 50.25420 | 150.27997 | 34999 ft | 475 kts | 44° |
| 2026-04-29 19:10 | 50.29978 | 150.35480 | 34994 ft | 475 kts | 44° |
| 2026-04-29 19:10 | 50.33758 | 150.41722 | 34993 ft | 475 kts | 44° |
| 2026-04-29 19:11 | 50.39041 | 150.50458 | 34992 ft | 475 kts | 44° |
| 2026-04-29 19:11 | 50.43591 | 150.57982 | 34993 ft | 475 kts | 44° |
| 2026-04-29 19:12 | 50.48138 | 150.65514 | 34985 ft | 475 kts | 44° |
| 2026-04-29 19:12 | 50.51905 | 150.71800 | 34980 ft | 476 kts | 44° |
| 2026-04-29 19:13 | 50.56434 | 150.79377 | 34984 ft | 476 kts | 44° |
| 2026-04-29 19:13 | 50.60964 | 150.86972 | 34977 ft | 476 kts | 44° |
| 2026-04-29 19:14 | 50.65492 | 150.94575 | 34976 ft | 476 kts | 44° |
| 2026-04-29 19:14 | 50.70014 | 151.02201 | 34970 ft | 476 kts | 44° |
| 2026-04-29 19:15 | 50.74499 | 151.09793 | 34969 ft | 476 kts | 45° |
| 2026-04-29 19:15 | 50.79012 | 151.17456 | 34968 ft | 476 kts | 45° |
| 2026-04-29 19:16 | 50.83516 | 151.25130 | 34964 ft | 476 kts | 45° |
| 2026-04-29 19:16 | 50.88025 | 151.32823 | 34961 ft | 476 kts | 45° |
| 2026-04-29 19:17 | 50.92527 | 151.40521 | 34963 ft | 476 kts | 45° |
| 2026-04-29 19:17 | 50.97027 | 151.48234 | 34956 ft | 476 kts | 45° |
| 2026-04-29 19:18 | 51.01488 | 151.55918 | 34956 ft | 476 kts | 45° |
| 2026-04-29 19:18 | 51.05978 | 151.63672 | 34952 ft | 476 kts | 45° |
| 2026-04-29 19:19 | 51.10460 | 151.71428 | 34955 ft | 477 kts | 45° |
| 2026-04-29 19:19 | 51.14939 | 151.79218 | 34950 ft | 477 kts | 45° |
| 2026-04-29 19:20 | 51.19402 | 151.87024 | 34948 ft | 477 kts | 45° |
| 2026-04-29 19:20 | 51.23867 | 151.94839 | 34945 ft | 477 kts | 45° |
| 2026-04-29 19:21 | 51.28329 | 152.02663 | 34944 ft | 477 kts | 45° |
| 2026-04-29 19:21 | 51.32759 | 152.10444 | 34940 ft | 477 kts | 46° |
| 2026-04-29 19:22 | 51.37210 | 152.18309 | 34938 ft | 477 kts | 46° |
| 2026-04-29 19:22 | 51.41656 | 152.26187 | 34935 ft | 477 kts | 46° |
| 2026-04-29 19:23 | 51.46092 | 152.34075 | 34933 ft | 477 kts | 46° |
| 2026-04-29 19:23 | 51.50530 | 152.41975 | 34925 ft | 477 kts | 46° |
| 2026-04-29 19:24 | 51.54934 | 152.49840 | 34927 ft | 477 kts | 46° |
| 2026-04-29 19:24 | 51.59361 | 152.57772 | 34923 ft | 477 kts | 46° |
| 2026-04-29 19:25 | 51.63778 | 152.65723 | 34922 ft | 477 kts | 46° |
| 2026-04-29 19:25 | 51.68186 | 152.73704 | 34918 ft | 477 kts | 46° |
| 2026-04-29 19:26 | 51.72600 | 152.81682 | 34914 ft | 477 kts | 46° |
| 2026-04-29 19:26 | 51.76975 | 152.89629 | 34914 ft | 477 kts | 46° |
| 2026-04-29 19:27 | 51.81380 | 152.97646 | 34910 ft | 477 kts | 46° |
| 2026-04-29 19:27 | 51.85778 | 153.05669 | 34906 ft | 477 kts | 46° |
| 2026-04-29 19:28 | 51.90171 | 153.13725 | 34907 ft | 477 kts | 47° |
| 2026-04-29 19:28 | 51.94550 | 153.21797 | 34908 ft | 477 kts | 47° |
| 2026-04-29 19:29 | 51.98929 | 153.29880 | 34903 ft | 477 kts | 47° |
| 2026-04-29 19:29 | 52.03277 | 153.37917 | 34902 ft | 477 kts | 47° |
| 2026-04-29 19:30 | 52.07640 | 153.46032 | 34897 ft | 477 kts | 47° |
| 2026-04-29 19:30 | 52.11997 | 153.54172 | 34896 ft | 477 kts | 47° |
| 2026-04-29 19:31 | 52.16356 | 153.62307 | 34894 ft | 477 kts | 47° |
| 2026-04-29 19:31 | 52.20710 | 153.70458 | 34894 ft | 477 kts | 47° |
| 2026-04-29 19:32 | 52.25053 | 153.78626 | 34891 ft | 477 kts | 47° |
| 2026-04-29 19:32 | 52.29360 | 153.86750 | 34889 ft | 476 kts | 47° |
| 2026-04-29 19:33 | 52.33690 | 153.94953 | 34886 ft | 476 kts | 47° |
| 2026-04-29 19:33 | 52.38009 | 154.03178 | 34881 ft | 476 kts | 47° |
| 2026-04-29 19:34 | 52.42328 | 154.11411 | 34876 ft | 476 kts | 47° |
| 2026-04-29 19:34 | 52.46640 | 154.19647 | 34876 ft | 476 kts | 47° |
| 2026-04-29 19:35 | 52.50945 | 154.27905 | 34873 ft | 476 kts | 47° |
| 2026-04-29 19:35 | 52.55212 | 154.36124 | 34870 ft | 476 kts | 48° |
| 2026-04-29 19:36 | 52.59499 | 154.44424 | 34870 ft | 476 kts | 48° |
| 2026-04-29 19:36 | 52.63131 | 154.53270 | 34862 ft | 479 kts | 64° |
| 2026-04-29 19:37 | 52.65044 | 154.63747 | 34857 ft | 480 kts | 79° |
| 2026-04-29 19:37 | 52.66210 | 154.74580 | 34847 ft | 481 kts | 79° |
| 2026-04-29 19:38 | 52.67386 | 154.85423 | 34844 ft | 481 kts | 79° |
| 2026-04-29 19:38 | 52.68562 | 154.96269 | 34839 ft | 481 kts | 79° |
| 2026-04-29 19:39 | 52.69708 | 155.07060 | 34837 ft | 481 kts | 79° |
| 2026-04-29 19:39 | 52.70842 | 155.17942 | 34833 ft | 481 kts | 79° |
| 2026-04-29 19:40 | 52.71967 | 155.28826 | 34829 ft | 482 kts | 79° |
| 2026-04-29 19:40 | 52.73092 | 155.39723 | 34829 ft | 482 kts | 79° |
| 2026-04-29 19:41 | 52.74210 | 155.50627 | 34829 ft | 482 kts | 80° |
| 2026-04-29 19:41 | 52.75315 | 155.61526 | 34830 ft | 482 kts | 80° |
| 2026-04-29 19:42 | 52.76409 | 155.72439 | 34823 ft | 481 kts | 80° |
| 2026-04-29 19:42 | 52.77478 | 155.83274 | 34822 ft | 481 kts | 80° |
| 2026-04-29 19:43 | 52.78544 | 155.94184 | 34825 ft | 481 kts | 80° |
| 2026-04-29 19:43 | 52.79590 | 156.05083 | 34828 ft | 480 kts | 81° |
| 2026-04-29 19:44 | 52.80631 | 156.15966 | 34826 ft | 479 kts | 80° |
| 2026-04-29 19:44 | 52.81663 | 156.26822 | 34825 ft | 478 kts | 82° |
| 2026-04-29 19:45 | 52.82360 | 156.37740 | 34818 ft | 477 kts | 85° |
| 2026-04-29 19:45 | 52.82850 | 156.48678 | 34820 ft | 477 kts | 85° |
| 2026-04-29 19:46 | 52.83335 | 156.59531 | 34815 ft | 476 kts | 85° |
| 2026-04-29 19:46 | 52.83876 | 156.70415 | 34831 ft | 473 kts | 85° |
| 2026-04-29 19:47 | 52.84433 | 156.81209 | 34828 ft | 470 kts | 85° |
| 2026-04-29 19:47 | 52.84964 | 156.91947 | 34825 ft | 467 kts | 85° |
| 2026-04-29 19:48 | 52.85472 | 157.02646 | 34823 ft | 466 kts | 85° |
| 2026-04-29 19:48 | 52.85964 | 157.13320 | 34820 ft | 465 kts | 85° |
| 2026-04-29 19:49 | 52.86446 | 157.23907 | 34820 ft | 464 kts | 85° |
| 2026-04-29 19:49 | 52.86687 | 157.29198 | 34712 ft | 458 kts | 85° |
| 2026-04-29 19:49 | 52.86924 | 157.34425 | 34312 ft | 452 kts | 85° |
| 2026-04-29 19:49 | 52.87155 | 157.39569 | 33921 ft | 446 kts | 85° |
| 2026-04-29 19:50 | 52.87379 | 157.44670 | 33343 ft | 443 kts | 86° |
| 2026-04-29 19:50 | 52.87597 | 157.49754 | 32621 ft | 443 kts | 86° |
| 2026-04-29 19:50 | 52.87812 | 157.54844 | 31930 ft | 443 kts | 86° |
| 2026-04-29 19:50 | 52.88025 | 157.59929 | 31249 ft | 443 kts | 86° |
| 2026-04-29 19:51 | 52.88240 | 157.65020 | 30582 ft | 442 kts | 87° |
| 2026-04-29 19:51 | 52.88454 | 157.70091 | 29935 ft | 442 kts | 87° |
| 2026-04-29 19:51 | 52.88661 | 157.75095 | 29186 ft | 441 kts | 87° |
| 2026-04-29 19:51 | 52.88866 | 157.80152 | 28425 ft | 440 kts | 87° |
| 2026-04-29 19:52 | 52.89068 | 157.85210 | 27691 ft | 439 kts | 87° |
| 2026-04-29 19:52 | 52.89268 | 157.90252 | 26974 ft | 438 kts | 87° |
| 2026-04-29 19:52 | 52.89467 | 157.95277 | 26266 ft | 437 kts | 87° |
| 2026-04-29 19:52 | 52.89663 | 158.00283 | 25583 ft | 435 kts | 87° |
| 2026-04-29 19:53 | 52.89855 | 158.05266 | 24912 ft | 433 kts | 87° |
| 2026-04-29 19:53 | 52.90042 | 158.10235 | 24257 ft | 431 kts | 87° |
| 2026-04-29 19:53 | 52.90227 | 158.15170 | 23615 ft | 429 kts | 87° |
| 2026-04-29 19:53 | 52.90411 | 158.20092 | 22913 ft | 427 kts | 87° |
| 2026-04-29 19:54 | 52.90768 | 158.29814 | 21464 ft | 425 kts | 86° |
| 2026-04-29 19:54 | 52.90946 | 158.34686 | 20763 ft | 423 kts | 86° |
| 2026-04-29 19:54 | 52.91121 | 158.39536 | 20075 ft | 421 kts | 86° |
| 2026-04-29 19:55 | 52.91289 | 158.44378 | 19404 ft | 420 kts | 86° |
| 2026-04-29 19:55 | 52.91455 | 158.49191 | 18746 ft | 418 kts | 86° |
| 2026-04-29 19:55 | 52.91614 | 158.53987 | 18099 ft | 416 kts | 86° |
| 2026-04-29 19:55 | 52.91764 | 158.58764 | 17372 ft | 413 kts | 86° |
| 2026-04-29 19:56 | 52.91904 | 158.63434 | 16647 ft | 397 kts | 86° |
| 2026-04-29 19:56 | 52.92033 | 158.67922 | 15946 ft | 383 kts | 86° |
| 2026-04-29 19:56 | 52.92152 | 158.72251 | 15263 ft | 371 kts | 86° |
| 2026-04-29 19:56 | 52.92262 | 158.76459 | 14589 ft | 360 kts | 86° |
| 2026-04-29 19:57 | 52.92364 | 158.80542 | 13941 ft | 350 kts | 87° |
| 2026-04-29 19:57 | 52.92296 | 158.83182 | 13510 ft | 344 kts | 99° |
| 2026-04-29 19:57 | 52.91052 | 158.87868 | 12553 ft | 335 kts | 129° |
| 2026-04-29 19:57 | 52.89300 | 158.90310 | 11847 ft | 328 kts | 149° |
| 2026-04-29 19:58 | 52.87271 | 158.91950 | 11157 ft | 322 kts | 156° |
| 2026-04-29 19:58 | 52.85233 | 158.93401 | 10488 ft | 316 kts | 156° |
| 2026-04-29 19:58 | 52.83226 | 158.94805 | 9930 ft | 308 kts | 156° |
| 2026-04-29 19:58 | 52.81318 | 158.96130 | 9778 ft | 287 kts | 156° |
| 2026-04-29 19:59 | 52.79533 | 158.97355 | 9615 ft | 271 kts | 159° |
| 2026-04-29 19:59 | 52.77705 | 158.97845 | 9414 ft | 266 kts | 187° |
| 2026-04-29 19:59 | 52.75995 | 158.96901 | 9099 ft | 263 kts | 215° |
| 2026-04-29 19:59 | 52.74762 | 158.94705 | 8700 ft | 258 kts | 245° |
| 2026-04-29 20:00 | 52.74338 | 158.91923 | 8326 ft | 254 kts | 269° |
| 2026-04-29 20:00 | 52.74486 | 158.89053 | 7944 ft | 250 kts | 289° |
| 2026-04-29 20:00 | 52.75296 | 158.86565 | 7569 ft | 246 kts | 314° |
| 2026-04-29 20:00 | 52.76633 | 158.84844 | 7204 ft | 244 kts | 330° |
| 2026-04-29 20:01 | 52.78087 | 158.83395 | 6836 ft | 244 kts | 330° |
| 2026-04-29 20:01 | 52.79541 | 158.81957 | 6471 ft | 243 kts | 330° |
| 2026-04-29 20:01 | 52.80988 | 158.80526 | 6112 ft | 242 kts | 330° |
| 2026-04-29 20:01 | 52.82434 | 158.79098 | 5723 ft | 241 kts | 330° |
| 2026-04-29 20:02 | 52.83870 | 158.77677 | 5347 ft | 240 kts | 330° |
| 2026-04-29 20:02 | 52.85303 | 158.76259 | 4971 ft | 239 kts | 329° |
| 2026-04-29 20:02 | 52.86728 | 158.74842 | 4601 ft | 239 kts | 329° |
| 2026-04-29 20:02 | 52.87668 | 158.73908 | 4351 ft | 238 kts | 329° |
| 2026-04-29 20:03 | 52.89566 | 158.72026 | 3832 ft | 237 kts | 329° |
| 2026-04-29 20:03 | 52.90893 | 158.70493 | 3465 ft | 236 kts | 319° |
| 2026-04-29 20:03 | 52.92102 | 158.68663 | 3096 ft | 235 kts | 317° |
| 2026-04-29 20:03 | 52.93222 | 158.66783 | 2994 ft | 224 kts | 310° |
| 2026-04-29 20:04 | 52.94155 | 158.64733 | 3003 ft | 222 kts | 303° |
| 2026-04-29 20:04 | 52.94968 | 158.62547 | 3008 ft | 222 kts | 301° |
| 2026-04-29 20:04 | 52.95970 | 158.60634 | 3004 ft | 222 kts | 327° |
| 2026-04-29 20:04 | 52.97337 | 158.59440 | 3013 ft | 222 kts | 335° |
| 2026-04-29 20:05 | 52.98754 | 158.58401 | 3002 ft | 223 kts | 336° |
| 2026-04-29 20:05 | 53.00171 | 158.57388 | 3005 ft | 219 kts | 336° |
| 2026-04-29 20:05 | 53.01547 | 158.56407 | 3005 ft | 209 kts | 336° |
| 2026-04-29 20:05 | 53.02849 | 158.55478 | 3013 ft | 197 kts | 336° |
| 2026-04-29 20:06 | 53.04061 | 158.54607 | 2909 ft | 184 kts | 335° |
| 2026-04-29 20:06 | 53.05218 | 158.53665 | 2524 ft | 185 kts | 332° |
| 2026-04-29 20:06 | 53.06297 | 158.52660 | 2252 ft | 173 kts | 329° |
| 2026-04-29 20:06 | 53.07332 | 158.51746 | 1920 ft | 165 kts | 335° |
| 2026-04-29 20:07 | 53.08336 | 158.51034 | 1632 ft | 150 kts | 338° |
| 2026-04-29 20:07 | 53.09269 | 158.50396 | 1364 ft | 141 kts | 337° |
| 2026-04-29 20:07 | 53.10152 | 158.49737 | 1203 ft | 138 kts | 336° |
| 2026-04-29 20:07 | 53.11021 | 158.49085 | 1012 ft | 136 kts | 337° |
| 2026-04-29 20:08 | 53.11901 | 158.48512 | 849 ft | 136 kts | 340° |
| 2026-04-29 20:08 | 53.12479 | 158.48128 | 774 ft | 135 kts | 338° |
| 2026-04-29 20:08 | 53.13637 | 158.47315 | 595 ft | 135 kts | 338° |
| 2026-04-29 20:08 | 53.14507 | 158.46730 | 401 ft | 134 kts | 337° |
| 2026-04-29 20:09 | 53.15370 | 158.46128 | 210 ft | 134 kts | 338° |
| 2026-04-29 20:09 | 53.16208 | 158.45551 | 137 ft | 120 kts | 338° |
| 2026-04-29 20:09 | 53.16707 | 158.45223 | 137 ft | 37 kts | 338° |
| 2026-04-29 20:09 | 53.16932 | 158.45064 | 136 ft | 35 kts | 337° |
| 2026-04-29 20:10 | 53.17148 | 158.44919 | 136 ft | 33 kts | 339° |
| 2026-04-29 20:10 | 53.17352 | 158.44773 | 138 ft | 31 kts | 336° |
| 2026-04-29 20:10 | 53.17533 | 158.44649 | 138 ft | 22 kts | 340° |
| 2026-04-29 20:10 | 53.17586 | 158.44588 | 138 ft | 6 kts | 296° |
| 2026-04-29 20:11 | 53.17579 | 158.44528 | 138 ft | 5 kts | 245° |
| 2026-04-29 20:11 | 53.17565 | 158.44478 | 138 ft | 5 kts | 245° |
| 2026-04-29 20:11 | 53.17553 | 158.44427 | 138 ft | 5 kts | 248° |
| 2026-04-29 20:11 | 53.17533 | 158.44341 | 137 ft | 11 kts | 248° |
| 2026-04-29 20:12 | 53.17501 | 158.44212 | 137 ft | 14 kts | 247° |
| 2026-04-29 20:12 | 53.17466 | 158.44074 | 137 ft | 12 kts | 247° |
| 2026-04-29 20:12 | 53.17425 | 158.43945 | 137 ft | 13 kts | 240° |
| 2026-04-29 20:12 | 53.17384 | 158.43827 | 137 ft | 11 kts | 240° |
| 2026-04-29 20:13 | 53.17349 | 158.43725 | 137 ft | 9 kts | 240° |
| 2026-04-29 20:13 | 53.17328 | 158.43665 | 137 ft | 8 kts | 239° |
| 2026-04-29 20:13 | 53.17293 | 158.43565 | 137 ft | 7 kts | 239° |
| 2026-04-29 20:13 | 53.17264 | 158.43484 | 137 ft | 10 kts | 240° |
| 2026-04-29 20:14 | 53.17221 | 158.43359 | 137 ft | 14 kts | 240° |
| 2026-04-29 20:14 | 53.17168 | 158.43205 | 137 ft | 17 kts | 240° |
| 2026-04-29 20:14 | 53.17111 | 158.43038 | 137 ft | 12 kts | 239° |
| 2026-04-29 20:14 | 53.17069 | 158.42957 | 137 ft | 8 kts | 205° |
| 2026-04-29 20:15 | 53.17019 | 158.42973 | 137 ft | 7 kts | 153° |
| 2026-04-29 20:15 | 53.16977 | 158.43013 | 137 ft | 7 kts | 149° |
| 2026-04-29 20:15 | 53.16926 | 158.43029 | 137 ft | 8 kts | 206° |
| 2026-04-29 20:15 | 53.16897 | 158.42933 | 137 ft | 10 kts | 248° |
| 2026-04-29 20:16 | 53.16875 | 158.42831 | 137 ft | 10 kts | 258° |
| 2026-04-29 20:16 | 53.16874 | 158.42738 | 137 ft | 6 kts | 270° |
| 2026-04-29 20:16 | 53.16874 | 158.42708 | 137 ft | 0 kts | 271° |